Carnival Liberty — HPYE — position and weather

sailwx.info

Track history (hours):
 
Tides and Currents Weather Stations Pressure Air Temp Water Temp Dewpoint Dewpoint Depression Visibility Wind Speed Wind Dir Waves Ship Positions

Carnival Liberty

Last reported at 2019-Nov-18 22:12 UTC. Time now 2019-Nov-20 09:15 UTC.
Position N 28°17' W 080°27'.

Type: Ship. MMSI: 371083000.

Date/timePositionNaut miles runAvg speedWind from/ knotsBaromVisibWave heightAir tempDewpointWater temp
2019-Nov-18 22:12N 28°17' W 080°27'1 7.1
2019-Nov-18 22:00N 28°18' W 080°28'4 7.1
2019-Nov-18 21:30N 28°21' W 080°30'7 7.0
2019-Nov-18 20:27N 28°25' W 080°38'0 0.0
2019-Nov-18 19:55N 28°25' W 080°38'0 0.0
2019-Nov-18 19:13N 28°25' W 080°38'0 0.0
2019-Nov-18 15:52N 28°25' W 080°38'0 0.0
2019-Nov-18 12:55N 28°25' W 080°38'0 0.0
2019-Nov-18 12:13N 28°25' W 080°38'1 0.5
2019-Nov-18 10:58N 28°25' W 080°37'  
2019-Nov-15 22:03N 28°16' W 080°26'14 6.3
2019-Nov-15 19:54N 28°25' W 080°38'0 0.0
2019-Nov-15 18:51N 28°25' W 080°38'0 0.0
2019-Nov-15 17:57N 28°25' W 080°38'0 0.0
2019-Nov-15 12:00N 28°25' W 080°38'14 5.6
2019-Nov-15 09:26N 28°16' W 080°25'  
2019-Nov-11 21:28N 28°20' W 080°29'613.4
2019-Nov-11 21:00N 28°24' W 080°34'3 1.2
2019-Nov-11 18:30N 28°25' W 080°38'0 0.0
2019-Nov-11 17:30N 28°25' W 080°38'0 0.0
2019-Nov-11 17:00N 28°25' W 080°38'0 0.0
2019-Nov-11 16:27N 28°25' W 080°38'0 0.0
2019-Nov-11 15:00N 28°25' W 080°38'0 0.0
2019-Nov-11 12:57N 28°25' W 080°38'0 0.0
2019-Nov-11 12:00N 28°25' W 080°38'4 2.3
2019-Nov-11 10:28N 28°24' W 080°34'  
Track history (hours):
 
Tides and Currents Weather Stations Pressure Air Temp Water Temp Dewpoint Dewpoint Depression Visibility Wind Speed Wind Dir Waves Ship Positions

Carnival Liberty

Last reported at 2019-Nov-18 22:12 UTC. Time now 2019-Nov-20 09:15 UTC.
Position N 28°17' W 080°27'.

Type: Ship. MMSI: 371083000.

Date/timePositionNaut miles runAvg speedWind from/ knotsBaromVisibWave heightAir tempDewpointWater temp
2019-Nov-18 22:12N 28°17' W 080°27'1 7.1
2019-Nov-18 22:00N 28°18' W 080°28'4 7.1
2019-Nov-18 21:30N 28°21' W 080°30'7 7.0
2019-Nov-18 20:27N 28°25' W 080°38'0 0.0
2019-Nov-18 19:55N 28°25' W 080°38'0 0.0
2019-Nov-18 19:13N 28°25' W 080°38'0 0.0
2019-Nov-18 15:52N 28°25' W 080°38'0 0.0
2019-Nov-18 12:55N 28°25' W 080°38'0 0.0
2019-Nov-18 12:13N 28°25' W 080°38'1 0.5
2019-Nov-18 10:58N 28°25' W 080°37'  
2019-Nov-15 22:03N 28°16' W 080°26'14 6.3
2019-Nov-15 19:54N 28°25' W 080°38'0 0.0
2019-Nov-15 18:51N 28°25' W 080°38'0 0.0
2019-Nov-15 17:57N 28°25' W 080°38'0 0.0
2019-Nov-15 12:00N 28°25' W 080°38'14 5.6
2019-Nov-15 09:26N 28°16' W 080°25'  
2019-Nov-11 21:28N 28°20' W 080°29'613.4
2019-Nov-11 21:00N 28°24' W 080°34'3 1.2
2019-Nov-11 18:30N 28°25' W 080°38'0 0.0
2019-Nov-11 17:30N 28°25' W 080°38'0 0.0
2019-Nov-11 17:00N 28°25' W 080°38'0 0.0
2019-Nov-11 16:27N 28°25' W 080°38'0 0.0
2019-Nov-11 15:00N 28°25' W 080°38'0 0.0
2019-Nov-11 12:57N 28°25' W 080°38'0 0.0
2019-Nov-11 12:00N 28°25' W 080°38'4 2.3
2019-Nov-11 10:28N 28°24' W 080°34'  

Dump ship's entire track history